Time;durP1;ratioP1;P1;durP2;ratioP2;P2;SDS_P1;SDS_P2;PMS_P1;PMS_P2;Temp;Humidity;BMP_temperature;BMP_pressure;BME280_temperature;BME280_humidity;BME280_pressure;Samples;Min_cycle;Max_cycle;Signal;HPM_P1;HPM_P2
2022/07/23 00:00:48;;;;;;;6.75;3.60;;;;;;;26.97;39.43;102027.88;5093859;28;20020;-77
2022/07/23 00:03:13;;;;;;;4.65;3.38;;;;;;;26.26;41.12;102031.16;5094740;28;20491;-77
2022/07/23 00:05:39;;;;;;;4.53;3.38;;;;;;;26.72;40.35;102029.34;5094514;28;20023;-77
2022/07/23 00:08:06;;;;;;;6.85;3.65;;;;;;;26.76;39.60;102032.69;5093556;28;20047;-77
2022/07/23 00:10:32;;;;;;;9.55;3.15;;;;;;;26.36;40.90;102032.34;5112704;28;20027;-77
2022/07/23 00:12:57;;;;;;;7.32;3.28;;;;;;;26.15;40.61;102031.78;5112763;28;20118;-77
2022/07/23 00:15:23;;;;;;;4.20;3.47;;;;;;;25.87;41.39;102026.13;5112289;28;20020;-77
2022/07/23 00:17:48;;;;;;;3.40;2.92;;;;;;;26.06;41.23;102019.75;5112564;28;20033;-77
2022/07/23 00:20:14;;;;;;;7.18;3.00;;;;;;;26.77;39.51;102018.34;5112567;28;20032;-77
2022/07/23 00:22:50;;;;;;;5.82;3.00;;;;;;;26.29;40.14;102020.25;5093594;28;20506;-76
2022/07/23 00:25:16;;;;;;;5.70;2.85;;;;;;;26.77;39.36;102023.69;5094303;28;20039;-77
2022/07/23 00:27:41;;;;;;;4.60;2.92;;;;;;;26.56;39.58;102007.91;5094301;28;20027;-76
2022/07/23 00:30:07;;;;;;;4.13;3.20;;;;;;;26.60;39.39;101997.88;5111773;28;20028;-76
2022/07/23 00:33:04;;;;;;;7.93;3.25;;;;;;;26.24;40.98;101996.41;5093983;28;20024;-77
2022/07/23 00:35:32;;;;;;;5.43;2.83;;;;;;;25.93;41.12;101989.25;5112032;28;20046;-77
2022/07/23 00:37:59;;;;;;;3.75;3.05;;;;;;;26.17;40.52;101990.56;5111765;28;20023;-77
2022/07/23 00:40:25;;;;;;;5.95;3.00;;;;;;;26.56;39.86;101986.47;5114762;28;20031;-77
2022/07/23 00:42:51;;;;;;;4.05;2.80;;;;;;;26.75;39.78;101980.91;5097987;28;20083;-77
2022/07/23 00:45:17;;;;;;;2.88;2.65;;;;;;;26.70;39.35;101982.13;5116211;28;20070;-78
2022/07/23 00:47:42;;;;;;;5.28;3.20;;;;;;;26.35;40.45;101977.00;5116461;28;20024;-77
2022/07/23 00:50:09;;;;;;;3.63;2.95;;;;;;;25.38;41.99;101991.38;5097510;28;20039;-78
2022/07/23 00:52:36;;;;;;;5.65;3.42;;;;;;;25.83;41.59;101976.38;5116432;28;20031;-77
2022/07/23 00:55:01;;;;;;;6.60;3.40;;;;;;;25.69;41.49;101985.19;5098084;28;20463;-78
2022/07/23 00:57:27;;;;;;;5.15;2.95;;;;;;;25.46;41.80;101970.41;5115533;28;20038;-77
2022/07/23 00:59:52;;;;;;;7.13;3.45;;;;;;;25.10;42.82;101975.91;5097893;28;20444;-77
2022/07/23 01:02:18;;;;;;;4.47;3.00;;;;;;;25.54;42.08;101976.19;5116263;28;20091;-77
2022/07/23 01:04:43;;;;;;;5.75;3.63;;;;;;;25.05;43.24;101973.50;5096851;28;20081;-75
2022/07/23 01:07:09;;;;;;;4.78;3.30;;;;;;;25.02;43.18;101968.31;5098105;28;20435;-77
2022/07/23 01:09:34;;;;;;;6.68;3.65;;;;;;;25.18;42.99;101969.22;5097713;28;20038;-77
2022/07/23 01:12:00;;;;;;;7.30;3.38;;;;;;;24.59;44.14;101962.50;5097022;28;20042;-77
2022/07/23 01:14:26;;;;;;;5.28;3.38;;;;;;;25.05;43.17;101968.13;5097393;28;20035;-78
2022/07/23 01:16:52;;;;;;;6.82;3.70;;;;;;;24.12;45.20;101978.16;5097720;28;20107;-77
2022/07/23 01:19:19;;;;;;;6.18;3.50;;;;;;;25.15;43.23;101964.00;5097025;28;20534;-76
2022/07/23 01:21:47;;;;;;;5.80;3.72;;;;;;;24.85;43.46;101961.16;5115845;28;20028;-77
2022/07/23 01:24:13;;;;;;;6.32;3.85;;;;;;;24.69;44.24;101961.97;5097302;28;20044;-77
2022/07/23 01:26:44;;;;;;;5.45;3.40;;;;;;;24.57;44.01;101954.56;5096592;28;20471;-77
2022/07/23 01:29:10;;;;;;;4.35;3.78;;;;;;;24.73;43.76;101957.34;5115662;28;20567;-78
2022/07/23 01:31:36;;;;;;;6.28;4.18;;;;;;;25.03;43.72;101964.66;5097195;28;20032;-77
2022/07/23 01:34:02;;;;;;;8.25;3.80;;;;;;;25.85;42.04;101961.06;5114734;28;20514;-77
2022/07/23 01:36:27;;;;;;;6.88;3.33;;;;;;;25.44;42.45;101968.75;5096994;28;20398;-77
2022/07/23 01:38:53;;;;;;;5.32;4.00;;;;;;;25.18;42.82;101971.91;5097098;28;20027;-77
2022/07/23 01:41:19;;;;;;;8.73;3.95;;;;;;;24.66;43.55;101966.59;5096728;28;20023;-78
2022/07/23 01:43:44;;;;;;;6.65;3.60;;;;;;;25.81;41.66;101985.44;5096839;28;20432;-77
2022/07/23 01:46:10;;;;;;;7.18;4.03;;;;;;;25.39;42.29;101974.38;5097208;28;20055;-77
2022/07/23 01:48:35;;;;;;;5.38;4.30;;;;;;;25.34;42.32;101973.75;5096672;28;20035;-77
2022/07/23 01:51:01;;;;;;;5.97;3.90;;;;;;;25.16;42.55;101976.44;5096625;28;20382;-77
2022/07/23 01:53:26;;;;;;;7.47;3.85;;;;;;;25.08;43.02;101972.47;5096308;28;20028;-77
2022/07/23 01:55:51;;;;;;;5.07;3.67;;;;;;;24.81;43.68;101976.53;5115195;28;20032;-77
2022/07/23 01:58:17;;;;;;;6.57;3.97;;;;;;;24.93;43.30;101976.81;5097006;28;20032;-77
2022/07/23 02:00:42;;;;;;;9.45;3.75;;;;;;;24.49;44.30;101970.97;5114319;28;20399;-77
2022/07/23 02:03:07;;;;;;;4.72;3.70;;;;;;;24.70;43.96;101973.53;5096862;28;20383;-77
2022/07/23 02:05:33;;;;;;;7.60;3.80;;;;;;;24.61;43.67;101969.53;5096466;28;20093;-77
2022/07/23 02:07:59;;;;;;;9.18;3.97;;;;;;;24.34;44.56;101972.59;5096053;28;20031;-77
2022/07/23 02:10:25;;;;;;;5.07;4.22;;;;;;;24.79;43.75;101975.72;5096533;28;20483;-77
2022/07/23 02:12:51;;;;;;;7.40;4.25;;;;;;;24.75;43.70;101979.50;5114879;28;20031;-77
2022/07/23 02:15:16;;;;;;;6.25;4.40;;;;;;;25.36;42.48;101969.16;5114218;28;20079;-77
2022/07/23 02:17:41;;;;;;;7.25;3.85;;;;;;;24.96;42.16;101968.63;5096289;28;20047;-77
2022/07/23 02:20:09;;;;;;;6.32;4.20;;;;;;;24.93;42.80;101972.31;5096678;28;20076;-77
2022/07/23 02:22:35;;;;;;;10.48;5.25;;;;;;;25.06;43.14;101967.19;5095663;28;20031;-77
2022/07/23 02:25:01;;;;;;;5.50;4.40;;;;;;;25.60;41.82;101968.78;5096422;28;20057;-77
2022/07/23 02:27:28;;;;;;;6.78;3.95;;;;;;;25.60;41.89;101971.47;5096080;28;20058;-77
2022/07/23 02:29:53;;;;;;;7.07;4.63;;;;;;;25.57;41.85;101959.97;5114007;28;20020;-77
2022/07/23 02:32:20;;;;;;;8.25;4.70;;;;;;;25.28;42.13;101960.66;5096256;28;20019;-77
2022/07/23 02:34:46;;;;;;;8.48;4.45;;;;;;;25.83;40.78;101971.03;5096134;28;20026;-77
2022/07/23 02:37:11;;;;;;;6.20;4.28;;;;;;;25.36;42.00;101971.84;5095482;28;20465;-77
2022/07/23 02:39:37;;;;;;;10.18;4.45;;;;;;;25.41;42.12;101980.50;5096016;28;20027;-77
2022/07/23 02:42:02;;;;;;;9.27;5.57;;;;;;;25.64;41.41;101981.91;5095857;28;20403;-77
2022/07/23 02:44:27;;;;;;;9.00;4.60;;;;;;;25.52;41.45;101978.09;5095387;28;20027;-77
2022/07/23 02:46:53;;;;;;;5.57;4.65;;;;;;;25.67;41.10;101976.38;5114250;28;20028;-77
2022/07/23 02:49:18;;;;;;;7.93;5.03;;;;;;;25.79;40.88;101974.81;5095965;28;20084;-77
2022/07/23 02:51:44;;;;;;;10.35;4.65;;;;;;;25.88;40.61;101979.66;5095206;28;20023;-77
2022/07/23 02:54:09;;;;;;;6.90;4.28;;;;;;;26.15;40.08;101978.19;5095772;28;20031;-77
2022/07/23 02:56:34;;;;;;;6.78;4.45;;;;;;;25.98;40.62;101992.50;5095016;28;20038;-77
2022/07/23 02:59:00;;;;;;;7.00;4.75;;;;;;;25.86;40.79;101991.41;5095585;28;20031;-77
2022/07/23 03:01:25;;;;;;;7.03;4.90;;;;;;;25.54;41.48;101997.63;5095566;28;20024;-78
2022/07/23 03:03:51;;;;;;;7.43;5.07;;;;;;;25.49;41.90;102002.34;5094092;28;20047;-77
2022/07/23 03:06:16;;;;;;;6.45;4.45;;;;;;;25.10;42.38;101995.50;5114231;28;20106;-77
2022/07/23 03:08:43;;;;;;;6.93;5.18;;;;;;;25.42;41.72;101998.28;5113535;28;20031;-77
2022/07/23 03:11:10;;;;;;;13.20;5.88;;;;;;;25.33;42.05;101977.38;5094809;28;20031;-77
2022/07/23 03:13:40;;;;;;;7.68;4.90;;;;;;;25.38;41.69;101980.66;5113690;28;20072;-77
2022/07/23 03:16:06;;;;;;;6.90;4.95;;;;;;;25.59;41.13;101983.13;5113889;28;20110;-77
2022/07/23 03:18:32;;;;;;;8.13;4.70;;;;;;;25.94;40.63;101982.91;5094685;28;20023;-77
2022/07/23 03:20:57;;;;;;;8.05;5.22;;;;;;;26.10;39.88;101978.44;5095308;28;20023;-77
2022/07/23 03:23:23;;;;;;;7.97;5.03;;;;;;;25.97;40.07;101977.41;5095275;28;20490;-77
2022/07/23 03:25:48;;;;;;;7.50;5.05;;;;;;;26.06;39.81;101977.78;5094511;28;20067;-77
2022/07/23 03:28:15;;;;;;;11.57;5.22;;;;;;;25.46;40.97;101983.78;5095127;28;20114;-77
2022/07/23 03:30:42;;;;;;;6.38;4.78;;;;;;;25.45;41.26;101984.72;5095251;28;20109;-77
2022/07/23 03:33:07;;;;;;;8.85;4.65;;;;;;;25.59;41.05;101980.44;5094475;28;20083;-77
2022/07/23 03:35:33;;;;;;;9.82;5.03;;;;;;;25.55;41.45;101983.28;5094873;28;20110;-77
2022/07/23 03:37:58;;;;;;;5.50;4.30;;;;;;;25.61;40.90;101976.72;5113224;28;20114;-77
2022/07/23 03:40:23;;;;;;;7.00;4.90;;;;;;;25.76;40.36;101980.38;5094136;28;20671;-77
2022/07/23 03:42:49;;;;;;;9.60;4.80;;;;;;;26.37;39.26;101980.47;5094916;28;20192;-77
2022/07/23 03:45:14;;;;;;;8.50;5.20;;;;;;;25.71;40.47;101977.94;5094836;28;20035;-78
2022/07/23 03:47:39;;;;;;;6.20;4.35;;;;;;;25.73;40.72;101976.03;5094554;28;20118;-77
2022/07/23 03:50:05;;;;;;;8.48;4.97;;;;;;;25.36;41.61;101979.88;5095117;28;20019;-78
2022/07/23 03:52:31;;;;;;;7.78;4.35;;;;;;;25.60;40.96;101988.38;5095078;28;20027;-78
2022/07/23 03:54:56;;;;;;;7.70;4.70;;;;;;;25.43;41.13;101989.31;5094600;28;20026;-79
2022/07/23 03:57:21;;;;;;;7.40;4.53;;;;;;;25.76;40.29;101991.06;5113189;28;20168;-79
2022/07/23 03:59:47;;;;;;;10.15;5.07;;;;;;;25.34;41.08;101995.16;5094870;28;20027;-79
2022/07/23 04:02:12;;;;;;;9.05;4.30;;;;;;;25.74;40.44;101999.16;5094334;28;20028;-78
2022/07/23 04:04:37;;;;;;;9.07;4.35;;;;;;;25.80;40.13;101991.75;5094833;28;20383;-78
2022/07/23 04:07:03;;;;;;;7.32;4.63;;;;;;;25.63;40.65;101996.22;5094351;28;20170;-78
2022/07/23 04:09:28;;;;;;;7.07;4.43;;;;;;;25.76;39.83;102000.91;5112918;28;20028;-79
2022/07/23 04:11:54;;;;;;;7.82;4.75;;;;;;;25.56;40.52;101994.84;5094866;28;20563;-79
2022/07/23 04:14:19;;;;;;;7.95;4.97;;;;;;;25.34;41.25;102006.72;5093105;28;20032;-78
2022/07/23 04:16:44;;;;;;;7.53;4.70;;;;;;;25.57;40.58;101997.44;5112995;28;20040;-79
2022/07/23 04:19:10;;;;;;;6.43;4.13;;;;;;;25.33;41.18;102004.97;5094630;28;20437;-78
2022/07/23 04:21:35;;;;;;;8.27;4.90;;;;;;;24.79;42.26;101991.75;5093847;28;20035;-78
2022/07/23 04:24:00;;;;;;;11.27;5.75;;;;;;;24.88;42.74;102003.78;5094639;28;20471;-79
2022/07/23 04:26:26;;;;;;;11.63;6.10;;;;;;;24.61;43.51;102001.59;5094593;28;20031;-78
2022/07/23 04:28:51;;;;;;;11.93;5.78;;;;;;;25.34;41.82;102001.38;5093927;28;20041;-78
2022/07/23 04:31:16;;;;;;;8.20;5.63;;;;;;;25.34;41.61;102006.72;5094421;28;20027;-78
2022/07/23 04:33:42;;;;;;;6.22;4.60;;;;;;;25.56;41.07;102011.75;5094511;28;20024;-78
2022/07/23 04:36:07;;;;;;;7.85;4.93;;;;;;;25.73;40.99;102008.16;5093532;28;20110;-79
2022/07/23 04:38:33;;;;;;;12.48;5.32;;;;;;;24.83;43.12;102012.03;5094372;28;20046;-79
2022/07/23 04:40:58;;;;;;;7.70;5.30;;;;;;;24.97;42.22;102021.16;5094546;28;20467;-78
2022/07/23 04:43:24;;;;;;;7.47;4.78;;;;;;;24.89;42.99;102017.09;5093538;28;20046;-79
2022/07/23 04:45:49;;;;;;;6.55;4.57;;;;;;;25.50;41.43;102014.78;5094537;28;20487;-79
2022/07/23 04:48:14;;;;;;;7.43;4.70;;;;;;;25.43;41.10;102010.72;5112742;28;20035;-79
2022/07/23 04:50:40;;;;;;;8.20;4.78;;;;;;;25.01;42.35;102009.38;5093904;28;20609;-79
2022/07/23 04:53:05;;;;;;;6.97;4.95;;;;;;;25.36;42.38;102015.53;5112656;28;20035;-79
2022/07/23 04:55:31;;;;;;;7.40;4.85;;;;;;;25.35;41.92;102007.59;5112639;28;20148;-79
2022/07/23 04:57:56;;;;;;;7.97;4.40;;;;;;;25.42;41.93;102011.66;5093613;28;20019;-79
2022/07/23 05:00:22;;;;;;;8.48;4.82;;;;;;;24.59;43.15;102018.63;5094523;28;20065;-79
2022/07/23 05:02:47;;;;;;;5.93;4.85;;;;;;;24.64;43.34;102021.97;5094618;28;20080;-79
2022/07/23 05:05:12;;;;;;;12.90;5.13;;;;;;;25.85;40.78;102011.94;5093600;28;20020;-79
2022/07/23 05:07:38;;;;;;;8.10;4.10;;;;;;;25.44;41.15;102016.94;5094317;28;20027;-79
2022/07/23 05:10:04;;;;;;;6.45;4.63;;;;;;;25.71;40.73;102028.78;5094303;28;20027;-79
2022/07/23 05:12:29;;;;;;;6.47;3.92;;;;;;;26.27;39.79;102022.16;5111812;28;20031;-79
2022/07/23 05:14:54;;;;;;;8.40;4.72;;;;;;;26.55;39.41;102022.25;5094278;28;20071;-79
2022/07/23 05:17:20;;;;;;;7.15;4.20;;;;;;;26.26;39.87;102012.41;5093612;28;20030;-79
2022/07/23 05:19:45;;;;;;;7.15;4.60;;;;;;;26.51;39.73;102018.03;5094155;28;20430;-79
2022/07/23 05:22:10;;;;;;;9.70;4.85;;;;;;;26.57;39.53;102019.47;5093947;28;20026;-79
2022/07/23 05:24:36;;;;;;;9.52;4.57;;;;;;;26.13;40.22;102023.84;5093371;28;20119;-79
2022/07/23 05:27:01;;;;;;;9.43;4.38;;;;;;;25.90;40.77;102020.59;5097094;28;20119;-79
2022/07/23 05:29:26;;;;;;;7.15;5.05;;;;;;;25.79;41.26;102031.06;5097807;28;20459;-79
2022/07/23 05:31:52;;;;;;;5.78;4.55;;;;;;;25.42;41.81;102025.03;5097056;28;20394;-79
2022/07/23 05:34:17;;;;;;;8.57;4.38;;;;;;;25.03;41.91;102024.38;5115772;28;20019;-80
2022/07/23 05:36:42;;;;;;;7.95;4.20;;;;;;;25.19;41.85;102024.41;5097524;28;20180;-79
2022/07/23 05:39:08;;;;;;;5.97;3.95;;;;;;;26.26;40.80;102020.44;5097031;28;20058;-79
2022/07/23 05:41:33;;;;;;;7.88;4.57;;;;;;;25.55;41.42;102031.47;5097493;28;20040;-79
2022/07/23 05:43:58;;;;;;;5.82;3.78;;;;;;;26.15;40.37;102029.09;5115915;28;20032;-79
2022/07/23 05:46:24;;;;;;;5.43;3.60;;;;;;;26.42;39.53;102021.28;5097442;28;20031;-79
2022/07/23 05:48:49;;;;;;;6.18;3.47;;;;;;;26.90;39.87;102021.13;5115821;28;20030;-79
2022/07/23 05:51:22;;;;;;;7.20;3.88;;;;;;;26.64;39.50;102022.66;5097737;28;20479;-79
2022/07/23 05:53:48;;;;;;;4.90;3.35;;;;;;;26.66;39.74;102024.31;5096886;28;20024;-79
2022/07/23 05:56:14;;;;;;;5.97;2.72;;;;;;;25.88;40.16;102033.22;5097666;28;20020;-79
2022/07/23 05:58:39;;;;;;;3.03;2.70;;;;;;;26.21;39.73;102028.72;5097134;28;20110;-78
2022/07/23 06:01:05;;;;;;;7.70;3.00;;;;;;;26.23;39.62;102038.41;5096874;28;20360;-79
2022/07/23 06:03:30;;;;;;;6.35;2.47;;;;;;;26.50;39.51;102029.75;5115346;28;20555;-79
2022/07/23 06:05:55;;;;;;;3.85;2.20;;;;;;;27.32;37.81;102032.03;5097178;28;20454;-79
2022/07/23 06:08:21;;;;;;;4.20;2.40;;;;;;;28.17;35.59;102035.59;5096567;28;20031;-79
2022/07/23 06:10:46;;;;;;;5.78;2.20;;;;;;;27.49;37.05;102042.59;5096877;28;20019;-80
2022/07/23 06:13:11;;;;;;;3.67;2.00;;;;;;;27.15;36.87;102046.47;5115164;28;20431;-79
2022/07/23 06:15:37;;;;;;;4.15;2.78;;;;;;;27.36;38.17;102047.00;5096290;28;20008;-79
2022/07/23 06:18:02;;;;;;;4.90;2.15;;;;;;;26.49;37.47;102052.13;5096875;28;20536;-79
2022/07/23 06:20:28;;;;;;;2.80;1.90;;;;;;;27.50;37.80;102036.25;5096832;28;20015;-80
2022/07/23 06:22:53;;;;;;;5.93;2.97;;;;;;;25.62;40.19;102052.53;5096384;28;20058;-79
2022/07/23 06:25:20;;;;;;;4.50;2.72;;;;;;;25.16;40.78;102054.03;5096597;28;20064;-79
2022/07/23 06:27:46;;;;;;;5.35;2.38;;;;;;;26.35;37.90;102054.72;5096282;28;20076;-79
2022/07/23 06:30:12;;;;;;;7.00;2.30;;;;;;;27.84;36.21;102041.31;5096461;28;20012;-77
2022/07/23 06:32:38;;;;;;;4.43;2.40;;;;;;;26.80;37.62;102039.59;5096472;28;20027;-79
2022/07/23 06:35:03;;;;;;;2.20;1.90;;;;;;;26.10;38.69;102031.16;5095422;28;20015;-79
2022/07/23 06:37:29;;;;;;;2.92;2.10;;;;;;;29.31;34.19;102031.53;5095599;28;20023;-79
2022/07/23 06:39:54;;;;;;;3.95;1.45;;;;;;;28.86;34.10;102018.47;5096532;28;20081;-79
2022/07/23 06:42:20;;;;;;;3.08;1.70;;;;;;;31.10;30.41;102026.34;5113994;28;20044;-78
2022/07/23 06:44:45;;;;;;;2.35;2.17;;;;;;;32.71;27.94;102026.78;5096282;28;20255;-79
2022/07/23 06:47:10;;;;;;;1.95;1.65;;;;;;;33.40;27.12;102034.31;5096090;28;20030;-80
2022/07/23 06:49:36;;;;;;;2.28;1.85;;;;;;;35.18;25.67;102039.66;5095544;28;20530;-79
2022/07/23 06:52:01;;;;;;;4.47;1.88;;;;;;;35.93;24.25;102042.34;5096170;28;20027;-79
2022/07/23 06:54:27;;;;;;;8.48;1.90;;;;;;;35.07;25.99;102039.88;5096132;28;20016;-78
2022/07/23 06:56:52;;;;;;;4.32;1.90;;;;;;;32.28;28.06;102053.75;5095242;28;20023;-78
2022/07/23 06:59:17;;;;;;;3.97;2.08;;;;;;;33.16;27.35;102037.28;5095765;28;20379;-78
2022/07/23 07:01:43;;;;;;;3.13;1.92;;;;;;;31.99;28.64;102041.78;5095658;28;20069;-78
2022/07/23 07:04:08;;;;;;;2.17;1.77;;;;;;;32.49;28.59;102039.41;5095215;28;20023;-78
2022/07/23 07:06:34;;;;;;;4.68;2.80;;;;;;;30.88;30.91;102046.03;5095666;28;20490;-78
2022/07/23 07:08:59;;;;;;;2.55;1.50;;;;;;;32.97;29.14;102049.75;5095664;28;20038;-78
2022/07/23 07:11:25;;;;;;;6.00;1.50;;;;;;;32.07;29.13;102060.94;5094928;28;20024;-78
2022/07/23 07:13:51;;;;;;;2.08;1.33;;;;;;;34.70;27.29;102054.22;5095145;28;20024;-78
2022/07/23 07:16:16;;;;;;;4.35;1.20;;;;;;;36.20;24.76;102062.31;5113622;28;20475;-78
2022/07/23 07:18:42;;;;;;;2.88;1.08;;;;;;;36.98;22.85;102058.91;5094821;28;20016;-78
2022/07/23 07:21:07;;;;;;;1.42;0.88;;;;;;;36.39;23.99;102069.50;5095201;28;20028;-78
2022/07/23 07:23:32;;;;;;;2.28;1.15;;;;;;;38.10;21.96;102058.88;5095329;28;20016;-77
2022/07/23 07:25:58;;;;;;;3.97;1.00;;;;;;;37.91;22.00;102051.88;5094089;28;20031;-78
2022/07/23 07:28:23;;;;;;;5.88;1.10;;;;;;;38.57;20.50;102051.94;5095141;28;20046;-78
2022/07/23 07:30:48;;;;;;;2.22;0.80;;;;;;;37.03;23.21;102060.28;5095173;28;20364;-78
2022/07/23 07:33:14;;;;;;;2.90;0.93;;;;;;;37.96;21.07;102062.25;5094616;28;20027;-77
2022/07/23 07:35:39;;;;;;;4.88;1.00;;;;;;;37.41;21.59;102058.16;5113437;28;20095;-78
2022/07/23 07:38:05;;;;;;;2.17;0.57;;;;;;;35.27;23.35;102065.06;5094587;28;20387;-79
2022/07/23 07:40:30;;;;;;;2.50;0.90;;;;;;;37.05;22.43;102069.16;5113494;28;20043;-79
2022/07/23 07:42:58;;;;;;;1.83;0.90;;;;;;;36.62;22.71;102086.19;5095030;28;20048;-79
2022/07/23 07:45:25;;;;;;;2.13;0.82;;;;;;;38.74;20.24;102076.53;5094572;28;20024;-79
2022/07/23 07:47:52;;;;;;;5.15;1.00;;;;;;;37.99;20.52;102073.69;5095015;28;20062;-78
2022/07/23 07:50:18;;;;;;;2.17;0.90;;;;;;;36.24;22.68;102074.59;5094753;28;20027;-78
2022/07/23 07:52:44;;;;;;;3.67;1.65;;;;;;;37.17;20.51;102073.34;5094529;28;20016;-78
2022/07/23 07:55:10;;;;;;;3.38;1.30;;;;;;;36.10;22.75;102080.59;5095094;28;20023;-79
2022/07/23 07:57:36;;;;;;;3.53;1.02;;;;;;;37.43;21.44;102072.47;5113026;28;20111;-78
2022/07/23 08:00:07;;;;;;;11.10;1.30;;;;;;;35.88;23.88;102082.72;5094212;28;20046;-78
2022/07/23 08:02:43;;;;;;;1.92;1.17;;;;;;;37.79;21.43;102078.59;5094819;28;20019;-78
2022/07/23 08:05:09;;;;;;;4.05;1.13;;;;;;;37.39;22.85;102092.91;5095015;28;20415;-78
2022/07/23 08:07:35;;;;;;;5.13;1.25;;;;;;;38.35;21.67;102089.81;5094551;28;20031;-79
2022/07/23 08:10:00;;;;;;;3.03;0.82;;;;;;;37.95;21.21;102091.44;5112898;28;20031;-78
2022/07/23 08:12:25;;;;;;;3.95;1.25;;;;;;;37.87;21.91;102091.41;5094649;28;20024;-78
2022/07/23 08:14:51;;;;;;;4.03;1.33;;;;;;;38.57;20.85;102094.75;5112305;28;20056;-78
2022/07/23 08:17:16;;;;;;;3.17;1.02;;;;;;;37.43;22.18;102091.56;5094466;28;20030;-78
2022/07/23 08:19:42;;;;;;;4.55;1.40;;;;;;;38.10;22.70;102080.72;5094402;28;20030;-78
2022/07/23 08:22:07;;;;;;;3.28;1.25;;;;;;;37.67;21.44;102091.66;5094036;28;20043;-78
2022/07/23 08:24:32;;;;;;;3.33;1.30;;;;;;;38.39;21.32;102098.53;5094698;28;20023;-78
2022/07/23 08:26:58;;;;;;;4.10;1.10;;;;;;;39.79;19.35;102086.47;5094656;28;20027;-78
2022/07/23 08:29:23;;;;;;;4.15;1.70;;;;;;;39.66;19.05;102096.09;5111977;28;20076;-78
2022/07/23 08:31:48;;;;;;;2.42;1.13;;;;;;;37.30;21.71;102101.03;5094195;28;20467;-78
2022/07/23 08:34:14;;;;;;;3.15;1.20;;;;;;;38.66;21.46;102091.88;5093507;28;20035;-78
2022/07/23 08:36:39;;;;;;;3.65;1.50;;;;;;;38.96;19.94;102094.06;5112506;28;20062;-77
2022/07/23 08:39:04;;;;;;;3.05;1.30;;;;;;;38.74;19.68;102093.75;5094467;28;20031;-78
2022/07/23 08:41:30;;;;;;;2.22;1.15;;;;;;;37.96;21.37;102095.00;5093163;28;20035;-78
2022/07/23 08:43:56;;;;;;;3.08;1.20;;;;;;;38.43;22.00;102090.81;5094218;28;20471;-78
2022/07/23 08:46:22;;;;;;;2.35;1.00;;;;;;;40.20;19.75;102095.31;5094017;28;20016;-78
2022/07/23 08:48:49;;;;;;;5.47;1.10;;;;;;;41.78;18.25;102092.66;5111686;28;20196;-78
2022/07/23 08:51:14;;;;;;;2.35;1.05;;;;;;;41.53;17.56;102094.91;5112518;28;20368;-78
2022/07/23 08:53:41;;;;;;;3.00;0.77;;;;;;;40.53;18.07;102102.44;5112596;28;20031;-78
2022/07/23 08:56:08;;;;;;;3.20;1.27;;;;;;;40.56;18.32;102101.22;5093386;28;20103;-78
2022/07/23 08:58:34;;;;;;;2.05;1.10;;;;;;;41.68;17.17;102097.63;5094009;28;20390;-77
2022/07/23 09:01:00;;;;;;;1.95;1.10;;;;;;;39.68;19.23;102102.25;5114008;28;20023;-77
2022/07/23 09:03:33;;;;;;;2.58;0.95;;;;;;;40.17;18.32;102106.59;5097317;28;20072;-77
2022/07/23 09:06:01;;;;;;;2.00;0.95;;;;;;;40.23;18.82;102104.19;5116177;28;20038;-78
2022/07/23 09:08:38;;;;;;;2.65;1.10;;;;;;;40.64;18.20;102102.00;5097886;28;20107;-78
2022/07/23 09:11:08;;;;;;;1.70;1.10;;;;;;;40.79;17.81;102109.38;5115319;28;20023;-78
2022/07/23 09:13:53;;;;;;;3.22;1.33;;;;;;;40.31;18.96;102110.47;5116067;28;20016;-78
2022/07/23 09:16:28;;;;;;;1.92;1.02;;;;;;;42.12;17.03;102109.53;5097580;28;20028;-78
2022/07/23 09:18:59;;;;;;;2.45;0.90;;;;;;;40.20;18.66;102109.00;5115973;28;20502;-78
2022/07/23 09:21:28;;;;;;;4.50;1.30;;;;;;;41.28;17.21;102108.06;5116123;28;20027;-78
2022/07/23 09:24:00;;;;;;;3.13;1.40;;;;;;;37.69;21.16;102105.97;5096555;28;20027;-78
2022/07/23 09:26:26;;;;;;;4.32;1.40;;;;;;;38.45;19.93;102106.03;5097283;28;20066;-78
2022/07/23 09:29:17;;;;;;;2.75;1.27;;;;;;;40.37;19.06;102106.13;5115800;28;20059;-78
2022/07/23 09:31:50;;;;;;;1.58;1.20;;;;;;;40.61;18.67;102107.84;5085558;28;20035;-78
2022/07/23 09:34:46;;;;;;;2.70;1.23;;;;;;;40.60;20.33;102111.63;5097389;28;20526;-78
2022/07/23 09:37:14;;;;;;;5.50;1.30;;;;;;;40.37;19.87;102101.50;5115023;28;20035;-78
2022/07/23 09:39:40;;;;;;;2.08;1.35;;;;;;;40.42;19.36;102102.84;5096663;28;20080;-77
2022/07/23 09:42:23;;;;;;;3.78;1.33;;;;;;;40.24;19.36;102108.63;5115335;28;20055;-78
2022/07/23 09:44:54;;;;;;;4.13;1.20;;;;;;;41.28;18.14;102111.63;5096445;28;20026;-78
2022/07/23 09:47:21;;;;;;;2.58;1.33;;;;;;;40.16;20.09;102115.00;5097202;28;20051;-78
2022/07/23 09:50:01;;;;;;;2.05;1.10;;;;;;;41.59;18.00;102110.63;5096925;28;20030;-78
2022/07/23 09:52:28;;;;;;;1.73;1.20;;;;;;;39.50;19.04;102099.75;5096570;28;20031;-78
2022/07/23 09:55:05;;;;;;;4.00;1.50;;;;;;;40.28;18.11;102107.22;5096730;28;20030;-78
2022/07/23 09:57:32;;;;;;;2.90;1.30;;;;;;;40.87;19.34;102117.53;5096876;28;20023;-78
2022/07/23 10:00:01;;;;;;;4.95;1.73;;;;;;;41.68;17.92;102111.34;5096170;28;20558;-78
2022/07/23 10:02:28;;;;;;;2.42;1.50;;;;;;;42.03;17.23;102106.06;5096589;28;20058;-78
2022/07/23 10:04:57;;;;;;;2.10;1.10;;;;;;;40.77;18.40;102108.75;5096768;28;20023;-78
2022/07/23 10:07:24;;;;;;;7.97;1.55;;;;;;;38.93;20.03;102103.47;5114260;28;20016;-78
2022/07/23 10:09:52;;;;;;;3.97;1.35;;;;;;;39.43;18.87;102106.94;5115015;28;20024;-78
2022/07/23 10:15:06;;;;;;;1.42;1.33;;;;;;;40.14;18.86;102104.25;5115135;28;20046;-78
2022/07/23 10:17:31;;;;;;;3.10;1.48;;;;;;;40.53;18.43;102111.50;5114613;28;20027;-78
2022/07/23 10:19:57;;;;;;;2.08;1.65;;;;;;;40.24;17.95;102106.72;5095981;28;20020;-78
2022/07/23 10:22:29;;;;;;;1.83;1.20;;;;;;;40.15;18.87;102107.84;5096252;28;20019;-78
2022/07/23 10:25:12;;;;;;;1.70;1.60;;;;;;;38.16;21.90;102106.47;5114581;28;20023;-79
2022/07/23 10:27:58;;;;;;;2.67;1.48;;;;;;;39.76;20.02;102108.72;5095624;28;20032;-78
2022/07/23 10:30:42;;;;;;;2.38;1.27;;;;;;;38.96;19.60;102103.09;5114423;28;20041;-78
2022/07/23 10:33:29;;;;;;;2.15;1.70;;;;;;;37.23;22.78;102101.81;5114730;28;20035;-78
2022/07/23 10:36:15;;;;;;;3.90;1.58;;;;;;;36.19;23.12;102101.44;5095291;28;20088;-78
2022/07/23 10:39:08;;;;;;;3.45;1.80;;;;;;;34.85;23.99;102107.09;5096220;28;20026;-77
2022/07/23 10:41:40;;;;;;;2.63;1.70;;;;;;;35.77;24.63;102101.94;5095291;28;20027;-77
2022/07/23 10:44:23;;;;;;;3.92;1.80;;;;;;;35.95;23.73;102104.75;5114239;28;20027;-77
2022/07/23 10:49:47;;;;;;;4.47;2.00;;;;;;;35.40;23.69;102094.69;5113994;28;20080;-77
2022/07/23 10:52:17;;;;;;;4.50;2.28;;;;;;;34.88;24.95;102095.91;5096173;28;20425;-77
2022/07/23 10:54:49;;;;;;;3.05;2.05;;;;;;;36.48;23.59;102094.94;5096040;28;20461;-77
2022/07/23 10:57:15;;;;;;;3.75;2.05;;;;;;;37.00;23.32;102089.59;5096026;28;20020;-77
2022/07/23 11:00:06;;;;;;;4.28;2.05;;;;;;;36.79;22.76;102091.78;5095906;28;20055;-77
2022/07/23 11:02:33;;;;;;;5.20;2.03;;;;;;;37.34;22.97;102086.06;5113663;28;20540;-77
2022/07/23 11:05:07;;;;;;;2.88;2.42;;;;;;;38.52;22.32;102084.34;5095808;28;20020;-77
2022/07/23 11:07:34;;;;;;;4.32;2.55;;;;;;;37.94;21.73;102086.97;5113722;28;20032;-78
2022/07/23 11:09:59;;;;;;;5.80;2.63;;;;;;;39.21;21.17;102083.94;5095076;28;20031;-77
2022/07/23 11:12:28;;;;;;;4.45;1.98;;;;;;;38.76;20.64;102079.91;5095647;28;20035;-78
2022/07/23 11:15:08;;;;;;;4.32;2.45;;;;;;;40.06;18.84;102089.78;5095484;28;20057;-78
2022/07/23 11:17:36;;;;;;;2.67;1.80;;;;;;;38.94;20.07;102088.78;5094876;28;20024;-78
2022/07/23 11:20:17;;;;;;;2.85;2.10;;;;;;;40.05;20.03;102080.69;5095345;28;20016;-78
2022/07/23 11:22:42;;;;;;;2.35;1.90;;;;;;;38.35;21.35;102089.81;5095399;28;20051;-77
2022/07/23 11:25:09;;;;;;;2.38;2.17;;;;;;;38.10;20.61;102085.31;5094131;28;20062;-77
2022/07/23 11:27:38;;;;;;;2.90;2.60;;;;;;;38.37;20.00;102086.06;5113527;28;20031;-77
2022/07/23 11:30:03;;;;;;;3.15;2.45;;;;;;;39.77;19.34;102083.91;5094532;28;20055;-78